createdAt,value
2022-08-09T00:01:52.886Z,99699.69
2022-08-09T00:05:03.683Z,99697.16
2022-08-09T00:08:32.641Z,99696.19
2022-08-09T00:12:03.236Z,99703.16
2022-08-09T00:14:58.473Z,99703.31
2022-08-09T00:18:11.372Z,99706.31
2022-08-09T00:21:14.682Z,99719.22
2022-08-09T00:24:19.849Z,99716.69
2022-08-09T00:27:22.218Z,99716.06
2022-08-09T00:30:26.723Z,99721.72
2022-08-09T00:33:32.794Z,99725.84
2022-08-09T00:36:52.037Z,99729.69
2022-08-09T00:40:12.595Z,99727.31
2022-08-09T00:44:10.531Z,99722.44
2022-08-09T00:46:56.358Z,99718.69
2022-08-09T00:50:01.475Z,99706.84
2022-08-09T00:53:10.175Z,99691.09
2022-08-09T00:56:15.216Z,99694.13
2022-08-09T00:59:40.401Z,99691.75
2022-08-09T01:02:47.245Z,99689.09
2022-08-09T01:06:20.497Z,99687.47
2022-08-09T01:09:37.913Z,99692.66
2022-08-09T01:12:47.176Z,99695.87
2022-08-09T01:15:54.700Z,99701.28
2022-08-09T01:19:02.651Z,99697.13
2022-08-09T01:22:55.230Z,99697.94
2022-08-09T01:26:19.009Z,99699.44
2022-08-09T01:29:55.494Z,99697.97
2022-08-09T01:33:00.344Z,99682.09
2022-08-09T01:36:09.042Z,99681.28
2022-08-09T01:39:11.618Z,99677.88
2022-08-09T01:42:16.186Z,99675.78
2022-08-09T01:45:19.349Z,99680.59
2022-08-09T01:48:29.802Z,99674.13
2022-08-09T01:51:34.108Z,99668.38
2022-08-09T01:54:41.357Z,99677.28
2022-08-09T01:57:46.002Z,99665.94
2022-08-09T02:00:50.577Z,99673.59
2022-08-09T02:03:53.798Z,99681.69
2022-08-09T02:07:17.973Z,99682.22
2022-08-09T02:10:29.716Z,99683.56
2022-08-09T02:13:37.540Z,99679.38
2022-08-09T02:16:59.755Z,99679.56
2022-08-09T02:20:07.024Z,99675.22
2022-08-09T02:23:13.844Z,99666.37
2022-08-09T02:26:25.219Z,99666.13
2022-08-09T02:29:32.759Z,99660.19
2022-08-09T02:32:38.745Z,99660.78
2022-08-09T02:36:01.943Z,99665.47
2022-08-09T02:39:14.471Z,99660.72
2022-08-09T02:42:34.186Z,99655.50
2022-08-09T02:45:42.746Z,99669.25
2022-08-09T02:48:47.472Z,99672.09
2022-08-09T02:51:56.599Z,99672.66
2022-08-09T02:55:03.186Z,99672.53
2022-08-09T02:58:35.894Z,99667.63
2022-08-09T03:02:05.745Z,99658.53
2022-08-09T03:05:04.449Z,99669.16
2022-08-09T03:08:09.540Z,99662.38
2022-08-09T03:11:15.292Z,99668.97
2022-08-09T03:14:38.513Z,99665.09
2022-08-09T03:17:44.013Z,99677.09
2022-08-09T03:20:46.486Z,99676.09
2022-08-09T03:24:04.490Z,99668.47
2022-08-09T03:27:09.465Z,99671.50
2022-08-09T03:30:33.144Z,99669.75
2022-08-09T03:33:54.718Z,99668.94
2022-08-09T03:36:59.567Z,99663.38
2022-08-09T03:40:02.378Z,99670.81
2022-08-09T03:43:07.256Z,99665.56
2022-08-09T03:46:20.516Z,99668.25
2022-08-09T03:49:32.811Z,99666.16
2022-08-09T03:52:39.221Z,99663.69
2022-08-09T03:55:42.389Z,99662.06
2022-08-09T03:58:44.908Z,99654.94
2022-08-09T04:01:50.116Z,99662.19
2022-08-09T04:04:53.675Z,99671.66
2022-08-09T04:07:56.773Z,99660.44
2022-08-09T04:11:01.312Z,99661.84
2022-08-09T04:14:53.185Z,99659.03
2022-08-09T04:17:26.339Z,99661.72
2022-08-09T04:20:32.681Z,99664.94
2022-08-09T04:23:35.086Z,99672.63
2022-08-09T04:26:38.364Z,99670.28
2022-08-09T04:29:40.657Z,99664.59
2022-08-09T04:32:52.546Z,99663.53
2022-08-09T04:35:56.469Z,99673.00
2022-08-09T04:39:00.855Z,99672.44
2022-08-09T04:42:03.374Z,99679.88
2022-08-09T04:45:06.283Z,99690.53
2022-08-09T04:48:10.519Z,99694.38
2022-08-09T04:51:12.981Z,99695.06
2022-08-09T04:54:20.088Z,99690.13
2022-08-09T04:57:24.383Z,99682.88
2022-08-09T05:00:31.954Z,99682.66
2022-08-09T05:03:43.266Z,99681.81
2022-08-09T05:06:46.242Z,99695.56
2022-08-09T05:09:52.859Z,99696.72
2022-08-09T05:12:55.069Z,99696.50
2022-08-09T05:15:57.274Z,99700.22
2022-08-09T05:19:00.511Z,99708.28
2022-08-09T05:22:05.104Z,99710.78
2022-08-09T05:25:28.324Z,99708.12
2022-08-09T05:28:34.878Z,99705.72
2022-08-09T05:31:46.614Z,99708.12
2022-08-09T05:34:52.845Z,99710.56
2022-08-09T05:37:57.143Z,99713.81
2022-08-09T05:41:01.055Z,99710.13
2022-08-09T05:44:03.562Z,99713.91
2022-08-09T05:47:07.670Z,99720.75
2022-08-09T05:50:26.882Z,99720.94
2022-08-09T05:53:37.239Z,99725.72
2022-08-09T05:56:56.710Z,99722.50
2022-08-09T05:59:59.050Z,99715.75
2022-08-09T06:03:03.616Z,99713.38
2022-08-09T06:06:06.494Z,99721.53
2022-08-09T06:09:09.974Z,99707.47
2022-08-09T06:12:31.406Z,99712.37
2022-08-09T06:15:33.850Z,99718.59
2022-08-09T06:18:36.534Z,99714.62
2022-08-09T06:21:39.669Z,99723.41
2022-08-09T06:24:52.756Z,99713.75
2022-08-09T06:27:55.374Z,99709.63
2022-08-09T06:30:57.604Z,99716.97
2022-08-09T06:33:59.880Z,99711.66
2022-08-09T06:37:02.107Z,99716.00
2022-08-09T06:40:21.985Z,99719.78
2022-08-09T06:43:26.556Z,99718.69
2022-08-09T06:46:39.578Z,99714.62
2022-08-09T06:50:11.613Z,99712.47
2022-08-09T06:53:05.883Z,99714.38
2022-08-09T06:56:09.126Z,99713.75
2022-08-09T07:00:50.247Z,99715.56
2022-08-09T07:02:34.256Z,99722.12
2022-08-09T07:06:02.240Z,99724.84
2022-08-09T07:09:01.585Z,99729.22
2022-08-09T07:12:04.220Z,99722.19
2022-08-09T07:15:53.825Z,99728.44
2022-08-09T07:18:29.525Z,99725.75
2022-08-09T07:21:36.575Z,99724.00
2022-08-09T07:24:40.775Z,99730.06
2022-08-09T07:27:53.559Z,99718.81
2022-08-09T07:30:57.945Z,99725.75
2022-08-09T07:34:00.136Z,99726.03
2022-08-09T07:37:02.606Z,99727.34
2022-08-09T07:40:05.584Z,99729.38
2022-08-09T07:43:16.610Z,99721.47
2022-08-09T07:46:19.694Z,99723.62
2022-08-09T07:49:21.981Z,99715.28
2022-08-09T07:52:24.239Z,99717.63
2022-08-09T07:55:28.647Z,99719.47
2022-08-09T07:58:31.057Z,99715.28
2022-08-09T08:01:34.588Z,99721.47
2022-08-09T08:04:37.338Z,99723.75
2022-08-09T08:08:43.083Z,99725.88
2022-08-09T08:11:03.459Z,99725.16
2022-08-09T08:14:25.779Z,99721.63
2022-08-09T08:17:52.423Z,99720.56
2022-08-09T08:20:51.207Z,99720.13
2022-08-09T08:23:55.959Z,99728.28
2022-08-09T08:26:58.588Z,99720.69
2022-08-09T08:30:03.711Z,99714.16
2022-08-09T08:33:06.805Z,99718.44
2022-08-09T08:36:14.274Z,99719.81
2022-08-09T08:39:31.702Z,99714.06
2022-08-09T08:42:43.361Z,99718.28
2022-08-09T08:46:03.750Z,99714.56
2022-08-09T08:49:12.858Z,99720.53
2022-08-09T08:55:52.612Z,99712.88
2022-08-09T08:58:55.094Z,99713.16
2022-08-09T09:01:59.554Z,99709.50
2022-08-09T09:05:02.942Z,99717.22
2022-08-09T09:08:31.067Z,99712.63
2022-08-09T09:11:38.470Z,99712.37
2022-08-09T09:14:42.569Z,99714.91
2022-08-09T09:17:49.098Z,99716.12
2022-08-09T09:20:55.196Z,99710.16
2022-08-09T09:24:04.758Z,99699.41
2022-08-09T09:28:04.619Z,99706.06
2022-08-09T09:30:57.613Z,99694.91
2022-08-09T09:34:14.203Z,99699.13
2022-08-09T09:37:31.802Z,99696.25
2022-08-09T09:40:42.269Z,99704.50
2022-08-09T09:44:12.989Z,99699.19
2022-08-09T09:47:16.652Z,99708.59
2022-08-09T09:50:49.727Z,99705.06
2022-08-09T09:54:19.095Z,99706.31
2022-08-09T09:58:02.195Z,99707.44
2022-08-09T10:00:58.701Z,99699.72
2022-08-09T10:04:08.709Z,99697.47
2022-08-09T10:07:23.937Z,99699.31
2022-08-09T10:10:31.616Z,99696.87
2022-08-09T10:13:43.593Z,99699.47
2022-08-09T10:16:56.563Z,99698.25
2022-08-09T10:20:32.493Z,99700.84
2022-08-09T10:23:38.294Z,99694.94
2022-08-09T10:26:42.475Z,99694.84
2022-08-09T10:30:16.513Z,99687.25
2022-08-09T10:33:29.592Z,99682.94
2022-08-09T10:36:34.115Z,99686.31
2022-08-09T10:39:40.856Z,99676.81
2022-08-09T10:42:53.137Z,99680.56
2022-08-09T10:46:00.066Z,99678.78
2022-08-09T10:49:17.445Z,99677.22
2022-08-09T10:52:37.410Z,99683.53
2022-08-09T10:55:58.217Z,99677.00
2022-08-09T10:59:23.346Z,99674.72
2022-08-09T11:03:15.797Z,99673.00
2022-08-09T11:06:25.377Z,99677.84
2022-08-09T11:09:41.191Z,99669.34
2022-08-09T11:13:49.370Z,99676.81
2022-08-09T11:16:39.362Z,99669.25
2022-08-09T11:20:11.184Z,99665.72
2022-08-09T11:23:23.962Z,99655.94
2022-08-09T11:26:40.020Z,99655.16
2022-08-09T11:30:02.304Z,99658.13
2022-08-09T11:33:26.037Z,99660.66
2022-08-09T11:36:42.344Z,99657.72
2022-08-09T11:40:01.399Z,99657.72
2022-08-09T11:43:05.384Z,99655.63
2022-08-09T11:46:08.972Z,99652.81
2022-08-09T11:49:16.992Z,99653.19
2022-08-09T11:53:16.695Z,99655.63
2022-08-09T11:56:14.288Z,99653.69
2022-08-09T11:59:30.119Z,99644.66
2022-08-09T12:02:53.726Z,99641.16
2022-08-09T12:05:58.530Z,99636.34
2022-08-09T12:09:02.037Z,99649.22
2022-08-09T12:12:12.880Z,99645.22
2022-08-09T12:15:48.906Z,99645.94
2022-08-09T12:18:53.878Z,99635.50
2022-08-09T12:22:00.915Z,99649.03
2022-08-09T12:25:31.858Z,99636.03
2022-08-09T12:29:00.307Z,99635.97
2022-08-09T12:32:10.970Z,99625.66
2022-08-09T12:35:19.336Z,99630.59
2022-08-09T12:38:29.710Z,99618.41
2022-08-09T12:41:40.553Z,99618.41
2022-08-09T12:44:46.624Z,99623.00
2022-08-09T12:47:54.846Z,99614.63
2022-08-09T12:50:58.184Z,99617.78
2022-08-09T12:54:03.042Z,99620.44
2022-08-09T12:57:05.622Z,99615.22
2022-08-09T13:00:18.391Z,99617.38
2022-08-09T13:03:58.533Z,99609.06
2022-08-09T13:06:54.100Z,99605.44
2022-08-09T13:10:03.153Z,99602.66
2022-08-09T13:13:10.278Z,99609.41
2022-08-09T13:16:15.826Z,99608.16
2022-08-09T13:20:08.665Z,99607.72
2022-08-09T13:23:16.417Z,99611.03
2022-08-09T13:26:36.928Z,99607.50
2022-08-09T13:30:02.988Z,99603.78
2022-08-09T13:33:01.928Z,99613.28
2022-08-09T13:36:39.203Z,99606.59
2022-08-09T13:41:46.489Z,99603.25
2022-08-09T13:42:50.273Z,99605.78
2022-08-09T13:46:43.633Z,99608.81
2022-08-09T13:49:18.116Z,99608.31
2022-08-09T13:52:21.104Z,99611.72
2022-08-09T13:55:23.276Z,99603.88
2022-08-09T13:58:25.641Z,99598.91
2022-08-09T14:01:56.658Z,99607.09
2022-08-09T14:04:59.688Z,99601.31
2022-08-09T14:08:04.592Z,99598.50
2022-08-09T14:11:15.973Z,99599.44
2022-08-09T14:14:25.727Z,99603.69
2022-08-09T14:17:32.739Z,99595.28
2022-08-09T14:20:52.793Z,99592.00
2022-08-09T14:23:57.001Z,99595.00
2022-08-09T14:27:01.245Z,99597.56
2022-08-09T14:30:36.325Z,99594.22
2022-08-09T14:33:27.043Z,99588.94
2022-08-09T14:36:39.889Z,99594.69
2022-08-09T14:39:48.349Z,99602.50
2022-08-09T14:42:51.113Z,99592.59
2022-08-09T14:46:55.436Z,99592.09
2022-08-09T14:49:16.169Z,99591.56
2022-08-09T14:52:18.540Z,99600.81
2022-08-09T14:55:21.346Z,99589.03
2022-08-09T14:58:23.693Z,99587.28
2022-08-09T15:01:28.461Z,99584.41
2022-08-09T15:04:33.740Z,99585.09
2022-08-09T15:07:36.102Z,99588.06
2022-08-09T15:10:38.980Z,99576.09
2022-08-09T15:13:56.163Z,99579.00
2022-08-09T15:17:07.598Z,99578.50
2022-08-09T15:20:15.253Z,99577.66
2022-08-09T15:24:02.513Z,99579.03
2022-08-09T15:26:46.021Z,99575.06
2022-08-09T15:30:57.554Z,99576.81
2022-08-09T15:33:23.229Z,99570.94
2022-08-09T15:36:30.664Z,99572.97
2022-08-09T15:39:43.804Z,99571.44
2022-08-09T15:42:55.112Z,99567.78
2022-08-09T15:46:28.222Z,99571.50
2022-08-09T15:49:23.771Z,99569.50
2022-08-09T15:52:26.292Z,99577.13
2022-08-09T15:55:29.061Z,99577.00
2022-08-09T15:58:37.440Z,99572.78
2022-08-09T16:01:41.635Z,99572.59
2022-08-09T16:04:45.171Z,99574.53
2022-08-09T16:07:51.916Z,99580.75
2022-08-09T16:10:55.840Z,99578.97
2022-08-09T16:14:02.864Z,99576.38
2022-08-09T16:17:08.914Z,99578.97
2022-08-09T16:20:12.838Z,99571.41
2022-08-09T16:23:15.179Z,99574.13
2022-08-09T16:26:34.940Z,99576.28
2022-08-09T16:29:50.037Z,99573.84
2022-08-09T16:33:09.432Z,99573.91
2022-08-09T16:36:15.953Z,99575.09
2022-08-09T16:39:20.859Z,99579.31
2022-08-09T16:42:23.873Z,99581.25
2022-08-09T16:45:27.428Z,99576.81
2022-08-09T16:48:50.544Z,99580.31
2022-08-09T16:51:55.203Z,99581.31
2022-08-09T16:54:57.718Z,99586.00
2022-08-09T16:58:09.834Z,99588.53
2022-08-09T17:01:13.627Z,99584.56
2022-08-09T17:04:26.114Z,99589.84
2022-08-09T17:08:45.078Z,99593.97
2022-08-09T17:10:53.289Z,99589.22
2022-08-09T17:14:00.956Z,99591.44
2022-08-09T17:17:13.009Z,99593.06
2022-08-09T17:20:32.573Z,99592.88
2022-08-09T17:24:28.400Z,99598.53
2022-08-09T17:27:02.015Z,99592.16
2022-08-09T17:30:12.626Z,99588.84
2022-08-09T17:33:22.284Z,99587.50
2022-08-09T17:36:25.322Z,99584.38
2022-08-09T17:39:52.822Z,99599.53
2022-08-09T17:42:55.739Z,99602.88
2022-08-09T17:46:06.859Z,99602.66
2022-08-09T17:49:09.978Z,99599.53
2022-08-09T17:52:22.133Z,99609.94
2022-08-09T17:55:24.850Z,99606.41
2022-08-09T17:58:47.534Z,99613.37
2022-08-09T18:02:07.786Z,99616.88
2022-08-09T18:05:12.919Z,99626.28
2022-08-09T18:08:16.140Z,99630.66
2022-08-09T18:11:23.747Z,99655.84
2022-08-09T18:14:26.732Z,99647.12
2022-08-09T18:18:02.521Z,99649.00
2022-08-09T18:20:56.143Z,99653.62
2022-08-09T18:24:10.445Z,99669.66
2022-08-09T18:27:59.898Z,99681.06
2022-08-09T18:30:48.657Z,99686.13
2022-08-09T18:33:53.268Z,99704.72
2022-08-09T18:36:56.150Z,99714.66
2022-08-09T18:39:58.520Z,99702.31
2022-08-09T18:43:00.807Z,99703.91
2022-08-09T18:46:49.929Z,99711.03
2022-08-09T18:49:27.593Z,99716.84
2022-08-09T18:52:35.519Z,99725.97
2022-08-09T18:55:56.123Z,99726.41
2022-08-09T18:59:01.015Z,99731.47
2022-08-09T19:02:04.535Z,99740.72
2022-08-09T19:05:20.452Z,99750.25
2022-08-09T19:08:31.505Z,99744.69
2022-08-09T19:11:35.194Z,99750.31
2022-08-09T19:14:40.356Z,99751.59
2022-08-09T19:17:54.425Z,99754.47
2022-08-09T19:20:58.904Z,99755.53
2022-08-09T19:24:37.524Z,99759.09
2022-08-09T19:27:28.502Z,99754.78
2022-08-09T19:30:32.464Z,99759.19
2022-08-09T19:33:35.414Z,99759.19
2022-08-09T19:36:37.658Z,99774.09
2022-08-09T19:40:04.666Z,99776.00
2022-08-09T19:43:10.258Z,99783.62
2022-08-09T19:46:34.006Z,99793.63
2022-08-09T19:50:07.709Z,99790.13
2022-08-09T19:53:04.191Z,99793.66
2022-08-09T19:56:07.175Z,99789.91
2022-08-09T19:59:39.258Z,99794.53
2022-08-09T20:04:23.694Z,99798.31
2022-08-09T20:06:04.057Z,99804.00
2022-08-09T20:09:06.388Z,99794.50
2022-08-09T20:12:09.388Z,99800.22
2022-08-09T20:16:38.342Z,99797.50
2022-08-09T20:19:42.323Z,99796.72
2022-08-09T20:22:14.784Z,99796.72
2022-08-09T20:25:22.623Z,99803.75
2022-08-09T20:28:34.659Z,99801.56
2022-08-09T20:31:51.447Z,99807.00
2022-08-09T20:35:10.065Z,99816.47
2022-08-09T20:38:22.293Z,99808.88
2022-08-09T20:41:37.746Z,99801.03
2022-08-09T20:44:40.204Z,99802.37
2022-08-09T20:47:53.111Z,99802.66
2022-08-09T20:50:58.298Z,99799.41
2022-08-09T20:54:00.695Z,99808.88
2022-08-09T20:57:06.417Z,99809.41
2022-08-09T21:00:20.376Z,99815.88
2022-08-09T21:04:07.625Z,99819.63
2022-08-09T21:06:55.943Z,99818.22
2022-08-09T21:09:58.714Z,99819.56
2022-08-09T21:13:01.299Z,99821.97
2022-08-09T21:16:04.336Z,99823.34
2022-08-09T21:20:17.937Z,99825.75
2022-08-09T21:22:46.906Z,99828.75
2022-08-09T21:25:59.813Z,99832.34
2022-08-09T21:29:02.365Z,99839.66
2022-08-09T21:32:18.804Z,99839.09
2022-08-09T21:35:21.949Z,99829.34
2022-08-09T21:38:31.286Z,99838.81
2022-08-09T21:42:03.746Z,99840.94
2022-08-09T21:44:57.114Z,99847.50
2022-08-09T21:47:59.730Z,99848.09
2022-08-09T21:51:01.955Z,99847.72
2022-08-09T21:54:04.920Z,99846.38
2022-08-09T21:57:07.083Z,99846.91
2022-08-09T22:00:33.175Z,99840.66
2022-08-09T22:03:36.773Z,99848.47
2022-08-09T22:06:59.104Z,99845.22
2022-08-09T22:10:08.668Z,99848.94
2022-08-09T22:13:11.571Z,99841.34
2022-08-09T22:16:13.881Z,99836.44
2022-08-09T22:19:57.762Z,99847.81
2022-08-09T22:22:39.974Z,99848.37
2022-08-09T22:26:08.075Z,99845.69
2022-08-09T22:29:07.432Z,99841.84
2022-08-09T22:32:29.437Z,99840.69
2022-08-09T22:36:00.794Z,99839.69
2022-08-09T22:38:54.597Z,99831.50
2022-08-09T22:41:56.915Z,99829.78
2022-08-09T22:48:10.862Z,99833.41
2022-08-09T22:48:36.242Z,99827.59
2022-08-09T22:51:49.436Z,99829.25
2022-08-09T22:54:52.163Z,99826.78
2022-08-09T22:57:59.630Z,99828.94
2022-08-09T23:01:03.815Z,99839.25
2022-08-09T23:04:07.535Z,99835.56
2022-08-09T23:08:23.128Z,99839.84
2022-08-09T23:10:50.517Z,99832.91
2022-08-09T23:13:53.713Z,99833.69
2022-08-09T23:16:55.994Z,99822.31
2022-08-09T23:20:06.276Z,99833.22
2022-08-09T23:23:09.841Z,99824.72
2022-08-09T23:26:12.023Z,99822.38
2022-08-09T23:29:14.256Z,99823.91
2022-08-09T23:32:16.558Z,99819.13
2022-08-09T23:35:18.780Z,99818.97
2022-08-09T23:38:21.353Z,99818.59
2022-08-09T23:41:27.746Z,99811.09
2022-08-09T23:44:31.714Z,99811.09
2022-08-09T23:47:33.912Z,99814.94
2022-08-09T23:50:36.397Z,99807.47
2022-08-09T23:53:38.766Z,99812.34
2022-08-09T23:56:54.626Z,99819.16
